sensor_id;sensor_type;location;lat;lon;timestamp;pressure;altitude;pressure_sealevel;temperature
75431;BMP280;64127;51.488;5.462;2022-12-18T00:01:37;102622.47;;;0.55
75431;BMP280;64127;51.488;5.462;2022-12-18T00:04:21;102619.66;;;0.60
75431;BMP280;64127;51.488;5.462;2022-12-18T00:06:54;102624.97;;;0.62
75431;BMP280;64127;51.488;5.462;2022-12-18T00:09:26;102612.66;;;0.59
75431;BMP280;64127;51.488;5.462;2022-12-18T00:12:10;102622.41;;;0.62
75431;BMP280;64127;51.488;5.462;2022-12-18T00:14:46;102632.28;;;0.66
75431;BMP280;64127;51.488;5.462;2022-12-18T00:17:18;102633.94;;;0.65
75431;BMP280;64127;51.488;5.462;2022-12-18T00:19:50;102624.97;;;0.62
75431;BMP280;64127;51.488;5.462;2022-12-18T00:22:22;102615.06;;;0.58
75431;BMP280;64127;51.488;5.462;2022-12-18T00:24:54;102610.34;;;0.54
75431;BMP280;64127;51.488;5.462;2022-12-18T00:27:26;102597.84;;;0.49
75431;BMP280;64127;51.488;5.462;2022-12-18T00:29:58;102593.88;;;0.44
75431;BMP280;64127;51.488;5.462;2022-12-18T00:32:30;102591.19;;;0.51
75431;BMP280;64127;51.488;5.462;2022-12-18T00:35:02;102573.56;;;0.47
75431;BMP280;64127;51.488;5.462;2022-12-18T00:37:34;102573.25;;;0.44
75431;BMP280;64127;51.488;5.462;2022-12-18T00:40:07;102586.13;;;0.44
75431;BMP280;64127;51.488;5.462;2022-12-18T00:42:39;102586.13;;;0.44
75431;BMP280;64127;51.488;5.462;2022-12-18T00:45:31;102582.78;;;0.45
75431;BMP280;64127;51.488;5.462;2022-12-18T00:48:03;102574.13;;;0.45
75431;BMP280;64127;51.488;5.462;2022-12-18T00:50:35;102572.56;;;0.38
75431;BMP280;64127;51.488;5.462;2022-12-18T00:53:07;102580.63;;;0.41
75431;BMP280;64127;51.488;5.462;2022-12-18T00:55:39;102580.97;;;0.44
75431;BMP280;64127;51.488;5.462;2022-12-18T00:58:15;102578.22;;;0.43
75431;BMP280;64127;51.488;5.462;2022-12-18T01:00:47;102578.97;;;0.42
75431;BMP280;64127;51.488;5.462;2022-12-18T01:03:19;102557.94;;;0.30
75431;BMP280;64127;51.488;5.462;2022-12-18T01:05:51;102583.44;;;0.36
75431;BMP280;64127;51.488;5.462;2022-12-18T01:08:23;102600.16;;;0.39
75431;BMP280;64127;51.488;5.462;2022-12-18T01:10:56;102595.59;;;0.37
75431;BMP280;64127;51.488;5.462;2022-12-18T01:13:28;102590.31;;;0.28
75431;BMP280;64127;51.488;5.462;2022-12-18T01:15:59;102606.13;;;0.31
75431;BMP280;64127;51.488;5.462;2022-12-18T01:18:32;102613.53;;;0.28
75431;BMP280;64127;51.488;5.462;2022-12-18T01:21:16;102608.22;;;0.27
75431;BMP280;64127;51.488;5.462;2022-12-18T01:23:53;102609.13;;;0.27
75431;BMP280;64127;51.488;5.462;2022-12-18T01:26:26;102607.28;;;0.26
75431;BMP280;64127;51.488;5.462;2022-12-18T01:29:01;102603.97;;;0.27
75431;BMP280;64127;51.488;5.462;2022-12-18T01:31:33;102602.28;;;0.28
75431;BMP280;64127;51.488;5.462;2022-12-18T01:34:06;102601.97;;;0.25
75431;BMP280;64127;51.488;5.462;2022-12-18T01:36:39;102600.56;;;0.20
75431;BMP280;64127;51.488;5.462;2022-12-18T01:39:13;102601.28;;;0.19
75431;BMP280;64127;51.488;5.462;2022-12-18T01:41:46;102595.94;;;0.17
75431;BMP280;64127;51.488;5.462;2022-12-18T01:48:00;102602.28;;;0.12
75431;BMP280;64127;51.488;5.462;2022-12-18T01:50:40;102595.78;;;0.16
75431;BMP280;64127;51.488;5.462;2022-12-18T01:53:21;102580.41;;;0.09
75431;BMP280;64127;51.488;5.462;2022-12-18T01:55:56;102590.13;;;0.11
75431;BMP280;64127;51.488;5.462;2022-12-18T02:01:12;102594.59;;;0.05
75431;BMP280;64127;51.488;5.462;2022-12-18T02:03:45;102594.25;;;0.02
75431;BMP280;64127;51.488;5.462;2022-12-18T02:09:12;102584.41;;;-0.09
75431;BMP280;64127;51.488;5.462;2022-12-18T02:11:54;102570.47;;;-0.11
75431;BMP280;64127;51.488;5.462;2022-12-18T02:14:40;102575.63;;;-0.11
75431;BMP280;64127;51.488;5.462;2022-12-18T02:17:29;102579.28;;;-0.09
75431;BMP280;64127;51.488;5.462;2022-12-18T02:20:43;102578.19;;;-0.11
75431;BMP280;64127;51.488;5.462;2022-12-18T02:23:56;102576.03;;;-0.15
75431;BMP280;64127;51.488;5.462;2022-12-18T02:26:46;102583.34;;;-0.11
75431;BMP280;64127;51.488;5.462;2022-12-18T02:29:45;102580.78;;;-0.11
75431;BMP280;64127;51.488;5.462;2022-12-18T02:32:30;102583.16;;;-0.13
75431;BMP280;64127;51.488;5.462;2022-12-18T02:35:06;102584.41;;;-0.09
75431;BMP280;64127;51.488;5.462;2022-12-18T02:37:42;102579.28;;;-0.09
75431;BMP280;64127;51.488;5.462;2022-12-18T02:40:17;102579.84;;;-0.12
75431;BMP280;64127;51.488;5.462;2022-12-18T02:42:50;102578.94;;;-0.12
75431;BMP280;64127;51.488;5.462;2022-12-18T02:45:22;102566.84;;;-0.20
75431;BMP280;64127;51.488;5.462;2022-12-18T02:47:54;102553.97;;;-0.20
75431;BMP280;64127;51.488;5.462;2022-12-18T02:50:44;102560.19;;;-0.11
75431;BMP280;64127;51.488;5.462;2022-12-18T02:53:59;102543.47;;;-0.15
75431;BMP280;64127;51.488;5.462;2022-12-18T02:56:49;102550.44;;;-0.14
75431;BMP280;64127;51.488;5.462;2022-12-18T02:59:36;102556.00;;;-0.18
75431;BMP280;64127;51.488;5.462;2022-12-18T03:02:37;102560.63;;;-0.22
75431;BMP280;64127;51.488;5.462;2022-12-18T03:05:17;102555.16;;;-0.25
75431;BMP280;64127;51.488;5.462;2022-12-18T03:08:00;102479.03;;;-0.69
75431;BMP280;64127;51.488;5.462;2022-12-18T03:10:43;102537.53;;;-0.29
75431;BMP280;64127;51.488;5.462;2022-12-18T03:16:15;102532.56;;;-0.28
75431;BMP280;64127;51.488;5.462;2022-12-18T03:18:56;102526.50;;;-0.28
75431;BMP280;64127;51.488;5.462;2022-12-18T03:21:42;102533.22;;;-0.22
75431;BMP280;64127;51.488;5.462;2022-12-18T03:24:17;102539.13;;;-0.23
75431;BMP280;64127;51.488;5.462;2022-12-18T03:27:00;102532.72;;;-0.26
75431;BMP280;64127;51.488;5.462;2022-12-18T03:29:56;102537.53;;;-0.29
75431;BMP280;64127;51.488;5.462;2022-12-18T03:32:49;102533.53;;;-0.34
75431;BMP280;64127;51.488;5.462;2022-12-18T03:35:36;102535.94;;;-0.36
75431;BMP280;64127;51.488;5.462;2022-12-18T03:38:10;102542.34;;;-0.32
75431;BMP280;64127;51.488;5.462;2022-12-18T03:44:16;102543.97;;;-0.33
75431;BMP280;64127;51.488;5.462;2022-12-18T03:50:16;102534.28;;;-0.35
75431;BMP280;64127;51.488;5.462;2022-12-18T03:55:35;102516.84;;;-0.38
75431;BMP280;64127;51.488;5.462;2022-12-18T03:58:11;102519.22;;;-0.39
75431;BMP280;64127;51.488;5.462;2022-12-18T04:00:47;102513.75;;;-0.42
75431;BMP280;64127;51.488;5.462;2022-12-18T04:03:21;102506.03;;;-0.42
75431;BMP280;64127;51.488;5.462;2022-12-18T04:06:10;102503.69;;;-0.48
75431;BMP280;64127;51.488;5.462;2022-12-18T04:08:43;102499.09;;;-0.51
75431;BMP280;64127;51.488;5.462;2022-12-18T04:11:16;102498.06;;;-0.60
75431;BMP280;64127;51.488;5.462;2022-12-18T04:13:48;102487.44;;;-0.63
75431;BMP280;64127;51.488;5.462;2022-12-18T04:16:20;102491.66;;;-0.63
75431;BMP280;64127;51.488;5.462;2022-12-18T04:18:53;102449.22;;;-0.82
75431;BMP280;64127;51.488;5.462;2022-12-18T04:21:25;102487.09;;;-0.66
75431;BMP280;64127;51.488;5.462;2022-12-18T04:23:57;102482.88;;;-0.65
75431;BMP280;64127;51.488;5.462;2022-12-18T04:26:29;102474.25;;;-0.66
75431;BMP280;64127;51.488;5.462;2022-12-18T04:29:01;102478.28;;;-0.68
75431;BMP280;64127;51.488;5.462;2022-12-18T04:31:33;102476.47;;;-0.69
75431;BMP280;64127;51.488;5.462;2022-12-18T04:34:05;102482.69;;;-0.67
75431;BMP280;64127;51.488;5.462;2022-12-18T04:36:37;102486.91;;;-0.67
75431;BMP280;64127;51.488;5.462;2022-12-18T04:39:09;102496.47;;;-0.66
75431;BMP280;64127;51.488;5.462;2022-12-18T04:41:41;102497.94;;;-0.68
75431;BMP280;64127;51.488;5.462;2022-12-18T04:44:13;102498.13;;;-0.67
75431;BMP280;64127;51.488;5.462;2022-12-18T04:46:45;102484.91;;;-0.70
75431;BMP280;64127;51.488;5.462;2022-12-18T04:49:17;102499.19;;;-0.65
75431;BMP280;64127;51.488;5.462;2022-12-18T04:51:49;102507.69;;;-0.66
75431;BMP280;64127;51.488;5.462;2022-12-18T04:54:21;102516.47;;;-0.64
75431;BMP280;64127;51.488;5.462;2022-12-18T04:56:54;102517.97;;;-0.66
75431;BMP280;64127;51.488;5.462;2022-12-18T04:59:26;102516.13;;;-0.67
75431;BMP280;64127;51.488;5.462;2022-12-18T05:01:58;102525.69;;;-0.66
75431;BMP280;64127;51.488;5.462;2022-12-18T05:04:30;102512.50;;;-0.69
75431;BMP280;64127;51.488;5.462;2022-12-18T05:07:02;102514.28;;;-0.68
75431;BMP280;64127;51.488;5.462;2022-12-18T05:09:34;102512.50;;;-0.69
75431;BMP280;64127;51.488;5.462;2022-12-18T05:12:06;102517.63;;;-0.69
75431;BMP280;64127;51.488;5.462;2022-12-18T05:14:38;102526.22;;;-0.68
75431;BMP280;64127;51.488;5.462;2022-12-18T05:17:10;102521.84;;;-0.69
75431;BMP280;64127;51.488;5.462;2022-12-18T05:19:42;102522.78;;;-0.69
75431;BMP280;64127;51.488;5.462;2022-12-18T05:22:14;102522.34;;;-0.65
75431;BMP280;64127;51.488;5.462;2022-12-18T05:24:45;102516.47;;;-0.64
75431;BMP280;64127;51.488;5.462;2022-12-18T05:27:17;102517.41;;;-0.63
75431;BMP280;64127;51.488;5.462;2022-12-18T05:29:50;102499.19;;;-0.65
75431;BMP280;64127;51.488;5.462;2022-12-18T05:32:22;102511.31;;;-0.64
75431;BMP280;64127;51.488;5.462;2022-12-18T05:34:54;102500.13;;;-0.64
75431;BMP280;64127;51.488;5.462;2022-12-18T05:37:28;102501.03;;;-0.64
75431;BMP280;64127;51.488;5.462;2022-12-18T05:40:02;102506.53;;;-0.61
75431;BMP280;64127;51.488;5.462;2022-12-18T05:42:34;102496.81;;;-0.63
75431;BMP280;64127;51.488;5.462;2022-12-18T05:45:07;102502.13;;;-0.62
75431;BMP280;64127;51.488;5.462;2022-12-18T05:47:39;102501.22;;;-0.62
75431;BMP280;64127;51.488;5.462;2022-12-18T05:50:11;102498.66;;;-0.62
75431;BMP280;64127;51.488;5.462;2022-12-18T05:52:42;102493.91;;;-0.66
75431;BMP280;64127;51.488;5.462;2022-12-18T05:55:15;102500.50;;;-0.68
75431;BMP280;64127;51.488;5.462;2022-12-18T05:57:47;102498.19;;;-0.74
75431;BMP280;64127;51.488;5.462;2022-12-18T06:00:19;102478.75;;;-0.79
75431;BMP280;64127;51.488;5.462;2022-12-18T06:02:51;102488.28;;;-0.78
75431;BMP280;64127;51.488;5.462;2022-12-18T06:05:23;102484.28;;;-0.83
75431;BMP280;64127;51.488;5.462;2022-12-18T06:07:55;102485.03;;;-0.84
75431;BMP280;64127;51.488;5.462;2022-12-18T06:10:27;102486.88;;;-0.83
75431;BMP280;64127;51.488;5.462;2022-12-18T06:12:59;102481.72;;;-0.83
75431;BMP280;64127;51.488;5.462;2022-12-18T06:15:32;102488.13;;;-0.79
75431;BMP280;64127;51.488;5.462;2022-12-18T06:18:04;102487.53;;;-0.77
75431;BMP280;64127;51.488;5.462;2022-12-18T06:20:36;102490.50;;;-0.81
75431;BMP280;64127;51.488;5.462;2022-12-18T06:23:11;102493.28;;;-0.79
75431;BMP280;64127;51.488;5.462;2022-12-18T06:25:43;102490.50;;;-0.81
75431;BMP280;64127;51.488;5.462;2022-12-18T06:28:15;102484.69;;;-0.87
75431;BMP280;64127;51.488;5.462;2022-12-18T06:30:48;102494.19;;;-0.79
75431;BMP280;64127;51.488;5.462;2022-12-18T06:33:20;102493.81;;;-0.82
75431;BMP280;64127;51.488;5.462;2022-12-18T06:35:52;102490.50;;;-0.81
75431;BMP280;64127;51.488;5.462;2022-12-18T06:38:33;102489.44;;;-0.83
75431;BMP280;64127;51.488;5.462;2022-12-18T06:41:11;102492.75;;;-0.84
75431;BMP280;64127;51.488;5.462;2022-12-18T06:43:44;102479.53;;;-0.87
75431;BMP280;64127;51.488;5.462;2022-12-18T06:46:16;102484.28;;;-0.83
75431;BMP280;64127;51.488;5.462;2022-12-18T06:48:50;102481.72;;;-0.83
75431;BMP280;64127;51.488;5.462;2022-12-18T06:51:23;102466.16;;;-0.91
75431;BMP280;64127;51.488;5.462;2022-12-18T06:53:56;102473.66;;;-0.86
75431;BMP280;64127;51.488;5.462;2022-12-18T06:56:28;102468.00;;;-0.90
75431;BMP280;64127;51.488;5.462;2022-12-18T06:59:00;102474.22;;;-0.88
75431;BMP280;64127;51.488;5.462;2022-12-18T07:01:32;102475.53;;;-0.92
75431;BMP280;64127;51.488;5.462;2022-12-18T07:04:04;102464.22;;;-1.01
75431;BMP280;64127;51.488;5.462;2022-12-18T07:06:36;102480.72;;;-0.99
75431;BMP280;64127;51.488;5.462;2022-12-18T07:09:08;102480.56;;;-1.00
75431;BMP280;64127;51.488;5.462;2022-12-18T07:11:40;102476.00;;;-1.03
75431;BMP280;64127;51.488;5.462;2022-12-18T07:14:12;102459.44;;;-1.05
75431;BMP280;64127;51.488;5.462;2022-12-18T07:16:44;102455.22;;;-1.05
75431;BMP280;64127;51.488;5.462;2022-12-18T07:19:16;102455.41;;;-1.03
75431;BMP280;64127;51.488;5.462;2022-12-18T07:21:50;102431.63;;;-1.16
75431;BMP280;64127;51.488;5.462;2022-12-18T07:24:22;102440.88;;;-1.03
75431;BMP280;64127;51.488;5.462;2022-12-18T07:26:54;102428.22;;;-1.01
75431;BMP280;64127;51.488;5.462;2022-12-18T07:29:26;102419.97;;;-1.06
75431;BMP280;64127;51.488;5.462;2022-12-18T07:31:58;102421.81;;;-1.05
75431;BMP280;64127;51.488;5.462;2022-12-18T07:34:30;102410.50;;;-1.14
75431;BMP280;64127;51.488;5.462;2022-12-18T07:37:02;102415.06;;;-1.11
75431;BMP280;64127;51.488;5.462;2022-12-18T07:39:34;102418.38;;;-1.12
75431;BMP280;64127;51.488;5.462;2022-12-18T07:42:07;102423.84;;;-1.09
75431;BMP280;64127;51.488;5.462;2022-12-18T07:44:59;102412.50;;;-1.11
75431;BMP280;64127;51.488;5.462;2022-12-18T07:47:35;102407.50;;;-1.10
75431;BMP280;64127;51.488;5.462;2022-12-18T07:50:08;102396.88;;;-1.13
75431;BMP280;64127;51.488;5.462;2022-12-18T07:52:40;102389.94;;;-1.14
75431;BMP280;64127;51.488;5.462;2022-12-18T07:55:12;102386.13;;;-1.17
75431;BMP280;64127;51.488;5.462;2022-12-18T07:57:44;102380.44;;;-1.22
75431;BMP280;64127;51.488;5.462;2022-12-18T08:00:31;102384.66;;;-1.22
75431;BMP280;64127;51.488;5.462;2022-12-18T08:03:03;102376.03;;;-1.23
75431;BMP280;64127;51.488;5.462;2022-12-18T08:05:36;102383.03;;;-1.22
75431;BMP280;64127;51.488;5.462;2022-12-18T08:08:09;102386.50;;;-1.21
75431;BMP280;64127;51.488;5.462;2022-12-18T08:10:41;102394.16;;;-1.14
75431;BMP280;64127;51.488;5.462;2022-12-18T08:13:13;102392.34;;;-1.15
75431;BMP280;64127;51.488;5.462;2022-12-18T08:15:45;102387.53;;;-1.12
75431;BMP280;64127;51.488;5.462;2022-12-18T08:18:17;102381.59;;;-1.04
75431;BMP280;64127;51.488;5.462;2022-12-18T08:20:49;102380.44;;;-0.99
75431;BMP280;64127;51.488;5.462;2022-12-18T08:23:21;102392.56;;;-0.98
75431;BMP280;64127;51.488;5.462;2022-12-18T08:25:58;102386.16;;;-1.02
75431;BMP280;64127;51.488;5.462;2022-12-18T08:28:30;102398.03;;;-0.95
75431;BMP280;64127;51.488;5.462;2022-12-18T08:31:02;102386.84;;;-0.95
75431;BMP280;64127;51.488;5.462;2022-12-18T08:33:36;102391.78;;;-0.90
75431;BMP280;64127;51.488;5.462;2022-12-18T08:36:09;102387.38;;;-0.91
75431;BMP280;64127;51.488;5.462;2022-12-18T08:38:41;102394.34;;;-0.90
75431;BMP280;64127;51.488;5.462;2022-12-18T08:41:15;102402.41;;;-0.87
75431;BMP280;64127;51.488;5.462;2022-12-18T08:43:47;102385.47;;;-0.85
75431;BMP280;64127;51.488;5.462;2022-12-18T08:46:41;102379.19;;;-0.80
75431;BMP280;64127;51.488;5.462;2022-12-18T08:49:14;102345.69;;;-0.95
75431;BMP280;64127;51.488;5.462;2022-12-18T08:51:46;102367.41;;;-0.78
75431;BMP280;64127;51.488;5.462;2022-12-18T08:54:18;102356.53;;;-0.75
75431;BMP280;64127;51.488;5.462;2022-12-18T08:56:50;102366.59;;;-0.70
75431;BMP280;64127;51.488;5.462;2022-12-18T08:59:22;102366.59;;;-0.70
75431;BMP280;64127;51.488;5.462;2022-12-18T09:01:55;102363.44;;;-0.67
75431;BMP280;64127;51.488;5.462;2022-12-18T09:04:27;102354.81;;;-0.68
75431;BMP280;64127;51.488;5.462;2022-12-18T09:06:59;102355.47;;;-0.62
75431;BMP280;64127;51.488;5.462;2022-12-18T09:09:31;102350.50;;;-0.60
75431;BMP280;64127;51.488;5.462;2022-12-18T09:12:03;102368.13;;;-0.56
75431;BMP280;64127;51.488;5.462;2022-12-18T09:14:36;102376.34;;;-0.52
75431;BMP280;64127;51.488;5.462;2022-12-18T09:17:08;102373.78;;;-0.52
75431;BMP280;64127;51.488;5.462;2022-12-18T09:19:40;102383.63;;;-0.47
75431;BMP280;64127;51.488;5.462;2022-12-18T09:22:12;102382.91;;;-0.46
75431;BMP280;64127;51.488;5.462;2022-12-18T09:24:44;102392.38;;;-0.38
75431;BMP280;64127;51.488;5.462;2022-12-18T09:27:16;102379.25;;;-0.33
75431;BMP280;64127;51.488;5.462;2022-12-18T09:29:47;102383.06;;;-0.29
75431;BMP280;64127;51.488;5.462;2022-12-18T09:32:19;102370.13;;;-0.22
75431;BMP280;64127;51.488;5.462;2022-12-18T09:34:53;102359.41;;;-0.18
75431;BMP280;64127;51.488;5.462;2022-12-18T09:37:25;102365.97;;;-0.13
75431;BMP280;64127;51.488;5.462;2022-12-18T09:39:57;102355.09;;;-0.11
75431;BMP280;64127;51.488;5.462;2022-12-18T09:42:29;102357.59;;;-0.04
75431;BMP280;64127;51.488;5.462;2022-12-18T09:45:03;102347.84;;;-0.06
75431;BMP280;64127;51.488;5.462;2022-12-18T09:47:38;102353.84;;;0.02
75431;BMP280;64127;51.488;5.462;2022-12-18T09:50:37;102351.25;;;0.02
75431;BMP280;64127;51.488;5.462;2022-12-18T09:53:26;102342.53;;;0.08
75431;BMP280;64127;51.488;5.462;2022-12-18T09:56:02;102321.69;;;0.14
75431;BMP280;64127;51.488;5.462;2022-12-18T09:59:01;102319.84;;;0.13
75431;BMP280;64127;51.488;5.462;2022-12-18T10:01:33;102325.03;;;0.21
75431;BMP280;64127;51.488;5.462;2022-12-18T10:04:14;102327.28;;;0.18
75431;BMP280;64127;51.488;5.462;2022-12-18T10:06:54;102340.91;;;0.33
75431;BMP280;64127;51.488;5.462;2022-12-18T10:10:10;102339.25;;;0.33
75431;BMP280;64127;51.488;5.462;2022-12-18T10:13:52;102341.22;;;0.36
75431;BMP280;64127;51.488;5.462;2022-12-18T10:16:21;102342.47;;;0.39
75431;BMP280;64127;51.488;5.462;2022-12-18T10:19:23;102334.63;;;0.46
75431;BMP280;64127;51.488;5.462;2022-12-18T10:28:10;102329.50;;;0.55
75431;BMP280;64127;51.488;5.462;2022-12-18T10:30:43;102321.03;;;0.56
75431;BMP280;64127;51.488;5.462;2022-12-18T10:33:29;102313.47;;;0.58
75431;BMP280;64127;51.488;5.462;2022-12-18T10:36:01;102304.69;;;0.64
75431;BMP280;64127;51.488;5.462;2022-12-18T10:38:34;102300.78;;;0.68
75431;BMP280;64127;51.488;5.462;2022-12-18T10:41:27;102286.97;;;0.67
75431;BMP280;64127;51.488;5.462;2022-12-18T10:44:21;102287.59;;;0.73
75431;BMP280;64127;51.488;5.462;2022-12-18T10:47:05;102267.56;;;0.71
75431;BMP280;64127;51.488;5.462;2022-12-18T10:49:50;102281.56;;;0.81
75431;BMP280;64127;51.488;5.462;2022-12-18T10:52:25;102276.31;;;0.88
75431;BMP280;64127;51.488;5.462;2022-12-18T10:55:01;102274.47;;;0.96
75431;BMP280;64127;51.488;5.462;2022-12-18T10:57:38;102270.72;;;1.01
75431;BMP280;64127;51.488;5.462;2022-12-18T11:00:30;102246.25;;;0.89
75431;BMP280;64127;51.488;5.462;2022-12-18T11:03:02;102243.53;;;0.96
75431;BMP280;64127;51.488;5.462;2022-12-18T11:05:34;102247.06;;;1.05
75431;BMP280;64127;51.488;5.462;2022-12-18T11:08:21;102247.66;;;1.02
75431;BMP280;64127;51.488;5.462;2022-12-18T11:10:55;102246.13;;;1.05
75431;BMP280;64127;51.488;5.462;2022-12-18T11:13:30;102247.81;;;1.04
75431;BMP280;64127;51.488;5.462;2022-12-18T11:16:03;102254.50;;;1.02
75431;BMP280;64127;51.488;5.462;2022-12-18T11:18:36;102248.69;;;0.96
75431;BMP280;64127;51.488;5.462;2022-12-18T11:21:13;102257.84;;;1.10
75431;BMP280;64127;51.488;5.462;2022-12-18T11:23:53;102253.88;;;1.13
75431;BMP280;64127;51.488;5.462;2022-12-18T11:26:35;102243.44;;;1.12
75431;BMP280;64127;51.488;5.462;2022-12-18T11:29:17;102229.91;;;1.14
75431;BMP280;64127;51.488;5.462;2022-12-18T11:34:52;102228.72;;;1.19
75431;BMP280;64127;51.488;5.462;2022-12-18T11:37:32;102219.47;;;1.21
75431;BMP280;64127;51.488;5.462;2022-12-18T11:40:21;102230.38;;;1.27
75431;BMP280;64127;51.488;5.462;2022-12-18T11:43:10;102224.78;;;1.31
75431;BMP280;64127;51.488;5.462;2022-12-18T11:46:34;102222.06;;;1.30
75431;BMP280;64127;51.488;5.462;2022-12-18T11:49:33;102224.34;;;1.35
75431;BMP280;64127;51.488;5.462;2022-12-18T11:52:27;102220.88;;;1.43
75431;BMP280;64127;51.488;5.462;2022-12-18T11:55:10;102218.56;;;1.46
75431;BMP280;64127;51.488;5.462;2022-12-18T11:58:47;102210.38;;;1.50
75431;BMP280;64127;51.488;5.462;2022-12-18T12:01:16;102209.78;;;1.53
75431;BMP280;64127;51.488;5.462;2022-12-18T12:07:26;102202.44;;;1.58
75431;BMP280;64127;51.488;5.462;2022-12-18T12:25:53;102181.06;;;1.59
75431;BMP280;64127;51.488;5.462;2022-12-18T12:40:26;102150.34;;;1.79
75431;BMP280;64127;51.488;5.462;2022-12-18T12:43:31;102140.00;;;1.79
75431;BMP280;64127;51.488;5.462;2022-12-18T12:46:13;102134.84;;;1.79
75431;BMP280;64127;51.488;5.462;2022-12-18T12:48:58;102127.09;;;1.79
75431;BMP280;64127;51.488;5.462;2022-12-18T12:51:41;102116.28;;;1.83
75431;BMP280;64127;51.488;5.462;2022-12-18T12:54:23;102126.63;;;1.91
75431;BMP280;64127;51.488;5.462;2022-12-18T12:57:05;102125.69;;;1.91
75431;BMP280;64127;51.488;5.462;2022-12-18T13:00:11;102117.50;;;1.86
75431;BMP280;64127;51.488;5.462;2022-12-18T13:03:01;102105.78;;;1.90
75431;BMP280;64127;51.488;5.462;2022-12-18T13:08:25;102104.69;;;1.96
75431;BMP280;64127;51.488;5.462;2022-12-18T13:11:01;102099.50;;;2.05
75431;BMP280;64127;51.488;5.462;2022-12-18T13:14:46;102084.66;;;1.94
75431;BMP280;64127;51.488;5.462;2022-12-18T13:20:10;102070.63;;;2.00
75431;BMP280;64127;51.488;5.462;2022-12-18T13:22:49;102092.34;;;2.11
75431;BMP280;64127;51.488;5.462;2022-12-18T13:25:36;102085.63;;;2.13
75431;BMP280;64127;51.488;5.462;2022-12-18T13:28:16;102081.25;;;2.12
75431;BMP280;64127;51.488;5.462;2022-12-18T13:30:57;102090.03;;;2.14
75431;BMP280;64127;51.488;5.462;2022-12-18T13:36:12;102090.78;;;2.13
75431;BMP280;64127;51.488;5.462;2022-12-18T13:38:45;102089.56;;;2.18
75431;BMP280;64127;51.488;5.462;2022-12-18T13:41:27;102092.44;;;2.21
75431;BMP280;64127;51.488;5.462;2022-12-18T13:44:36;102093.75;;;2.26
75431;BMP280;64127;51.488;5.462;2022-12-18T13:47:33;102088.91;;;2.29
75431;BMP280;64127;51.488;5.462;2022-12-18T13:50:24;102068.22;;;2.29
75431;BMP280;64127;51.488;5.462;2022-12-18T13:53:06;102066.53;;;2.30
75431;BMP280;64127;51.488;5.462;2022-12-18T13:55:44;102048.78;;;2.24
75431;BMP280;64127;51.488;5.462;2022-12-18T13:58:16;102063.75;;;2.37
75431;BMP280;64127;51.488;5.462;2022-12-18T14:00:49;102063.16;;;2.39
75431;BMP280;64127;51.488;5.462;2022-12-18T14:03:26;102057.97;;;2.39
75431;BMP280;64127;51.488;5.462;2022-12-18T14:06:08;102062.84;;;2.36
75431;BMP280;64127;51.488;5.462;2022-12-18T14:08:42;102024.19;;;2.19
75431;BMP280;64127;51.488;5.462;2022-12-18T14:11:22;102060.84;;;2.42
75431;BMP280;64127;51.488;5.462;2022-12-18T14:13:57;102061.88;;;2.44
75431;BMP280;64127;51.488;5.462;2022-12-18T14:16:31;102051.22;;;2.50
75431;BMP280;64127;51.488;5.462;2022-12-18T14:19:05;102064.00;;;2.48
75431;BMP280;64127;51.488;5.462;2022-12-18T14:21:49;102059.75;;;2.49
75431;BMP280;64127;51.488;5.462;2022-12-18T14:24:22;102062.44;;;2.50
75431;BMP280;64127;51.488;5.462;2022-12-18T14:26:54;102056.78;;;2.54
75431;BMP280;64127;51.488;5.462;2022-12-18T14:29:28;102056.66;;;2.53
75431;BMP280;64127;51.488;5.462;2022-12-18T14:32:13;102048.47;;;2.48
75431;BMP280;64127;51.488;5.462;2022-12-18T14:34:53;102057.88;;;2.57
75431;BMP280;64127;51.488;5.462;2022-12-18T14:37:26;102058.47;;;2.54
75431;BMP280;64127;51.488;5.462;2022-12-18T14:40:02;102055.75;;;2.52
75431;BMP280;64127;51.488;5.462;2022-12-18T14:42:42;102050.31;;;2.49
75431;BMP280;64127;51.488;5.462;2022-12-18T14:45:41;102049.22;;;2.47
75431;BMP280;64127;51.488;5.462;2022-12-18T14:48:36;102056.03;;;2.55
75431;BMP280;64127;51.488;5.462;2022-12-18T14:51:19;102046.44;;;2.54
75431;BMP280;64127;51.488;5.462;2022-12-18T14:56:37;102053.56;;;2.57
75431;BMP280;64127;51.488;5.462;2022-12-18T14:59:23;102048.41;;;2.57
75431;BMP280;64127;51.488;5.462;2022-12-18T15:02:25;102059.53;;;2.56
75431;BMP280;64127;51.488;5.462;2022-12-18T15:05:17;102049.31;;;2.58
75431;BMP280;64127;51.488;5.462;2022-12-18T15:07:55;102024.16;;;2.46
75431;BMP280;64127;51.488;5.462;2022-12-18T15:10:34;102051.16;;;2.59
75431;BMP280;64127;51.488;5.462;2022-12-18T15:13:09;102043.09;;;2.55
75431;BMP280;64127;51.488;5.462;2022-12-18T15:15:53;102046.59;;;2.56
75431;BMP280;64127;51.488;5.462;2022-12-18T15:18:35;102038.69;;;2.54
75431;BMP280;64127;51.488;5.462;2022-12-18T15:21:18;102033.53;;;2.54
75431;BMP280;64127;51.488;5.462;2022-12-18T15:23:52;102017.72;;;2.51
75431;BMP280;64127;51.488;5.462;2022-12-18T15:26:24;102002.88;;;2.40
75431;BMP280;64127;51.488;5.462;2022-12-18T15:28:57;102030.72;;;2.62
75431;BMP280;64127;51.488;5.462;2022-12-18T15:31:34;102024.53;;;2.60
75431;BMP280;64127;51.488;5.462;2022-12-18T15:34:19;102026.03;;;2.58
75431;BMP280;64127;51.488;5.462;2022-12-18T15:36:53;102025.56;;;2.62
75431;BMP280;64127;51.488;5.462;2022-12-18T15:39:25;102024.81;;;2.63
75431;BMP280;64127;51.488;5.462;2022-12-18T15:41:57;102026.47;;;2.62
75431;BMP280;64127;51.488;5.462;2022-12-18T15:44:47;102021.94;;;2.60
75431;BMP280;64127;51.488;5.462;2022-12-18T15:47:20;102019.47;;;2.61
75431;BMP280;64127;51.488;5.462;2022-12-18T15:49:52;102014.31;;;2.61
75431;BMP280;64127;51.488;5.462;2022-12-18T15:52:24;102004.88;;;2.62
75431;BMP280;64127;51.488;5.462;2022-12-18T15:54:57;101999.69;;;2.62
75431;BMP280;64127;51.488;5.462;2022-12-18T15:57:48;101993.13;;;2.65
75431;BMP280;64127;51.488;5.462;2022-12-18T16:00:20;101983.91;;;2.59
75431;BMP280;64127;51.488;5.462;2022-12-18T16:02:52;101979.50;;;2.58
75431;BMP280;64127;51.488;5.462;2022-12-18T16:05:28;101990.53;;;2.65
75431;BMP280;64127;51.488;5.462;2022-12-18T16:08:00;102002.72;;;2.66
75431;BMP280;64127;51.488;5.462;2022-12-18T16:10:32;101999.22;;;2.66
75431;BMP280;64127;51.488;5.462;2022-12-18T16:13:04;102001.81;;;2.66
75431;BMP280;64127;51.488;5.462;2022-12-18T16:15:37;101987.69;;;2.62